sensor_id;sensor_type;location;lat;lon;timestamp;pressure;altitude;pressure_sealevel;temperature;humidity
71465;BME280;59274;49.874;9.154;2023-07-13T00:02:21;100164.00;;;19.90;59.40
71465;BME280;59274;49.874;9.154;2023-07-13T00:04:47;100164.19;;;19.83;61.32
71465;BME280;59274;49.874;9.154;2023-07-13T00:07:12;100170.88;;;19.70;61.26
71465;BME280;59274;49.874;9.154;2023-07-13T00:09:40;100167.91;;;19.64;60.48
71465;BME280;59274;49.874;9.154;2023-07-13T00:12:25;100164.28;;;19.67;63.77
71465;BME280;59274;49.874;9.154;2023-07-13T00:14:51;100173.94;;;19.59;63.54
71465;BME280;59274;49.874;9.154;2023-07-13T00:17:17;100172.81;;;19.57;61.78
71465;BME280;59274;49.874;9.154;2023-07-13T00:19:42;100171.38;;;19.52;65.68
71465;BME280;59274;49.874;9.154;2023-07-13T00:22:08;100163.22;;;19.32;71.24
71465;BME280;59274;49.874;9.154;2023-07-13T00:24:33;100174.84;;;19.07;75.50
71465;BME280;59274;49.874;9.154;2023-07-13T00:26:59;100168.75;;;19.00;78.68
71465;BME280;59274;49.874;9.154;2023-07-13T00:29:25;100170.31;;;18.85;77.97
71465;BME280;59274;49.874;9.154;2023-07-13T00:31:51;100165.66;;;18.65;82.99
71465;BME280;59274;49.874;9.154;2023-07-13T00:34:19;100159.72;;;18.67;81.14
71465;BME280;59274;49.874;9.154;2023-07-13T00:36:45;100166.72;;;18.52;82.32
71465;BME280;59274;49.874;9.154;2023-07-13T00:39:10;100168.25;;;18.36;82.45
71465;BME280;59274;49.874;9.154;2023-07-13T00:41:39;100167.88;;;18.18;86.09
71465;BME280;59274;49.874;9.154;2023-07-13T00:44:04;100168.03;;;18.11;85.20
71465;BME280;59274;49.874;9.154;2023-07-13T00:46:32;100160.50;;;17.95;89.20
71465;BME280;59274;49.874;9.154;2023-07-13T00:49:05;100156.97;;;17.95;87.89
71465;BME280;59274;49.874;9.154;2023-07-13T00:51:50;100154.47;;;18.00;87.24
71465;BME280;59274;49.874;9.154;2023-07-13T00:54:21;100153.78;;;17.96;88.73
71465;BME280;59274;49.874;9.154;2023-07-13T00:56:50;100156.25;;;17.91;91.58
71465;BME280;59274;49.874;9.154;2023-07-13T00:59:18;100164.78;;;17.96;87.22
71465;BME280;59274;49.874;9.154;2023-07-13T01:01:45;100165.97;;;17.95;86.87
71465;BME280;59274;49.874;9.154;2023-07-13T01:04:10;100160.50;;;17.95;87.39
71465;BME280;59274;49.874;9.154;2023-07-13T01:06:37;100167.53;;;17.96;86.25
71465;BME280;59274;49.874;9.154;2023-07-13T01:09:06;100162.50;;;17.91;88.23
71465;BME280;59274;49.874;9.154;2023-07-13T01:11:32;100167.59;;;17.93;87.68
71465;BME280;59274;49.874;9.154;2023-07-13T01:13:57;100171.34;;;17.83;89.78
71465;BME280;59274;49.874;9.154;2023-07-13T01:16:28;100172.22;;;17.76;90.12
71465;BME280;59274;49.874;9.154;2023-07-13T01:18:55;100174.56;;;17.78;91.76
71465;BME280;59274;49.874;9.154;2023-07-13T01:21:24;100178.50;;;17.77;94.31
71465;BME280;59274;49.874;9.154;2023-07-13T01:23:50;100180.41;;;17.80;91.71
71465;BME280;59274;49.874;9.154;2023-07-13T01:26:16;100181.56;;;17.82;92.93
71465;BME280;59274;49.874;9.154;2023-07-13T01:28:41;100188.25;;;17.81;89.76
71465;BME280;59274;49.874;9.154;2023-07-13T01:31:07;100184.63;;;17.84;88.61
71465;BME280;59274;49.874;9.154;2023-07-13T01:33:33;100185.78;;;17.87;84.17
71465;BME280;59274;49.874;9.154;2023-07-13T01:35:59;100185.41;;;17.85;90.80
71465;BME280;59274;49.874;9.154;2023-07-13T01:38:25;100185.00;;;17.86;85.59
71465;BME280;59274;49.874;9.154;2023-07-13T01:40:52;100189.72;;;17.86;83.73
71465;BME280;59274;49.874;9.154;2023-07-13T01:43:18;100188.16;;;17.85;86.33
71465;BME280;59274;49.874;9.154;2023-07-13T01:45:44;100196.06;;;17.83;85.61
71465;BME280;59274;49.874;9.154;2023-07-13T01:48:10;100190.59;;;17.83;81.91
71465;BME280;59274;49.874;9.154;2023-07-13T01:50:37;100200.00;;;18.02;73.21
71465;BME280;59274;49.874;9.154;2023-07-13T01:53:03;100200.56;;;17.93;80.37
71465;BME280;59274;49.874;9.154;2023-07-13T01:55:29;100208.53;;;17.87;84.00
71465;BME280;59274;49.874;9.154;2023-07-13T01:57:55;100203.38;;;17.70;89.51
71465;BME280;59274;49.874;9.154;2023-07-13T02:00:21;100201.47;;;17.43;94.61
71465;BME280;59274;49.874;9.154;2023-07-13T02:02:46;100215.31;;;17.36;92.61
71465;BME280;59274;49.874;9.154;2023-07-13T02:05:12;100214.44;;;17.19;94.53
71465;BME280;59274;49.874;9.154;2023-07-13T02:07:38;100203.09;;;17.17;95.06
71465;BME280;59274;49.874;9.154;2023-07-13T02:10:06;100213.91;;;17.05;95.91
71465;BME280;59274;49.874;9.154;2023-07-13T02:12:31;100216.84;;;17.17;93.55
71465;BME280;59274;49.874;9.154;2023-07-13T02:14:57;100221.28;;;17.08;97.06
71465;BME280;59274;49.874;9.154;2023-07-13T02:17:22;100221.69;;;17.06;93.46
71465;BME280;59274;49.874;9.154;2023-07-13T02:19:48;100217.00;;;17.07;94.55
71465;BME280;59274;49.874;9.154;2023-07-13T02:22:13;100225.03;;;16.94;98.05
71465;BME280;59274;49.874;9.154;2023-07-13T02:24:39;100228.16;;;16.96;93.96
71465;BME280;59274;49.874;9.154;2023-07-13T02:27:05;100233.69;;;16.93;92.90
71465;BME280;59274;49.874;9.154;2023-07-13T02:29:31;100233.78;;;16.86;93.70
71465;BME280;59274;49.874;9.154;2023-07-13T02:31:56;100237.25;;;16.90;93.14
71465;BME280;59274;49.874;9.154;2023-07-13T02:34:21;100229.19;;;16.79;94.97
71465;BME280;59274;49.874;9.154;2023-07-13T02:36:47;100230.44;;;16.74;94.48
71465;BME280;59274;49.874;9.154;2023-07-13T02:39:13;100236.31;;;16.73;94.26
71465;BME280;59274;49.874;9.154;2023-07-13T02:41:38;100240.00;;;16.59;96.44
71465;BME280;59274;49.874;9.154;2023-07-13T02:44:04;100243.94;;;16.58;95.09
71465;BME280;59274;49.874;9.154;2023-07-13T02:46:32;100234.31;;;16.47;98.54
71465;BME280;59274;49.874;9.154;2023-07-13T02:48:58;100238.28;;;16.42;98.50
71465;BME280;59274;49.874;9.154;2023-07-13T02:51:23;100240.22;;;16.41;97.78
71465;BME280;59274;49.874;9.154;2023-07-13T02:53:49;100245.41;;;16.36;96.64
71465;BME280;59274;49.874;9.154;2023-07-13T02:56:14;100244.69;;;16.32;95.05
71465;BME280;59274;49.874;9.154;2023-07-13T02:58:40;100248.28;;;16.25;94.93
71465;BME280;59274;49.874;9.154;2023-07-13T03:01:07;100250.25;;;16.25;97.33
71465;BME280;59274;49.874;9.154;2023-07-13T03:03:33;100253.78;;;16.25;98.78
71465;BME280;59274;49.874;9.154;2023-07-13T03:06:02;100248.88;;;16.10;100.00
71465;BME280;59274;49.874;9.154;2023-07-13T03:08:29;100256.75;;;16.04;100.00
71465;BME280;59274;49.874;9.154;2023-07-13T03:11:02;100251.44;;;15.90;100.00
71465;BME280;59274;49.874;9.154;2023-07-13T03:13:31;100254.19;;;15.90;100.00
71465;BME280;59274;49.874;9.154;2023-07-13T03:15:59;100265.28;;;15.76;100.00
71465;BME280;59274;49.874;9.154;2023-07-13T03:18:27;100263.00;;;15.67;100.00
71465;BME280;59274;49.874;9.154;2023-07-13T03:20:53;100268.88;;;15.69;100.00
71465;BME280;59274;49.874;9.154;2023-07-13T03:23:19;100258.41;;;15.57;100.00
71465;BME280;59274;49.874;9.154;2023-07-13T03:25:44;100267.38;;;15.61;100.00
71465;BME280;59274;49.874;9.154;2023-07-13T03:28:11;100272.06;;;15.60;100.00
71465;BME280;59274;49.874;9.154;2023-07-13T03:30:37;100273.28;;;15.56;100.00
71465;BME280;59274;49.874;9.154;2023-07-13T03:33:02;100274.41;;;15.58;100.00
71465;BME280;59274;49.874;9.154;2023-07-13T03:35:28;100278.31;;;15.61;100.00
71465;BME280;59274;49.874;9.154;2023-07-13T03:37:53;100272.78;;;15.64;100.00
71465;BME280;59274;49.874;9.154;2023-07-13T03:40:19;100278.25;;;15.68;100.00
71465;BME280;59274;49.874;9.154;2023-07-13T03:42:44;100284.06;;;15.74;100.00
71465;BME280;59274;49.874;9.154;2023-07-13T03:45:10;100289.59;;;15.70;100.00
71465;BME280;59274;49.874;9.154;2023-07-13T03:47:35;100293.13;;;15.67;100.00
71465;BME280;59274;49.874;9.154;2023-07-13T03:50:00;100291.19;;;15.64;99.93
71465;BME280;59274;49.874;9.154;2023-07-13T03:52:26;100293.06;;;15.74;100.00
71465;BME280;59274;49.874;9.154;2023-07-13T03:54:52;100295.41;;;15.76;99.64
71465;BME280;59274;49.874;9.154;2023-07-13T03:57:18;100301.59;;;15.83;100.00
71465;BME280;59274;49.874;9.154;2023-07-13T03:59:43;100303.91;;;15.85;99.36
71465;BME280;59274;49.874;9.154;2023-07-13T04:02:09;100303.22;;;15.77;98.97
71465;BME280;59274;49.874;9.154;2023-07-13T04:04:35;100306.31;;;15.79;97.88
71465;BME280;59274;49.874;9.154;2023-07-13T04:07:00;100301.59;;;15.83;98.90
71465;BME280;59274;49.874;9.154;2023-07-13T04:09:26;100301.53;;;15.87;99.06
71465;BME280;59274;49.874;9.154;2023-07-13T04:11:51;100296.13;;;15.83;100.00
71465;BME280;59274;49.874;9.154;2023-07-13T04:14:16;100307.81;;;15.87;100.00
71465;BME280;59274;49.874;9.154;2023-07-13T04:16:42;100308.50;;;15.95;100.00
71465;BME280;59274;49.874;9.154;2023-07-13T04:19:09;100313.22;;;15.94;100.00
71465;BME280;59274;49.874;9.154;2023-07-13T04:21:36;100321.75;;;16.00;100.00
71465;BME280;59274;49.874;9.154;2023-07-13T04:24:03;100318.91;;;16.11;100.00
71465;BME280;59274;49.874;9.154;2023-07-13T04:26:29;100330.19;;;16.20;100.00
71465;BME280;59274;49.874;9.154;2023-07-13T04:28:56;100334.84;;;16.23;100.00
71465;BME280;59274;49.874;9.154;2023-07-13T04:31:22;100330.19;;;16.20;100.00
71465;BME280;59274;49.874;9.154;2023-07-13T04:33:48;100326.53;;;16.30;99.93
71465;BME280;59274;49.874;9.154;2023-07-13T04:36:14;100331.22;;;16.33;100.00
71465;BME280;59274;49.874;9.154;2023-07-13T04:38:40;100332.78;;;16.34;99.25
71465;BME280;59274;49.874;9.154;2023-07-13T04:41:07;100337.03;;;16.38;96.35
71465;BME280;59274;49.874;9.154;2023-07-13T04:43:34;100334.59;;;16.44;95.84
71465;BME280;59274;49.874;9.154;2023-07-13T04:46:05;100336.88;;;16.49;93.95
71465;BME280;59274;49.874;9.154;2023-07-13T04:48:31;100334.91;;;16.50;93.03
71465;BME280;59274;49.874;9.154;2023-07-13T04:50:57;100337.25;;;16.51;93.48
71465;BME280;59274;49.874;9.154;2023-07-13T04:53:24;100337.25;;;16.51;95.34
71465;BME280;59274;49.874;9.154;2023-07-13T04:55:50;100337.72;;;16.46;96.43
71465;BME280;59274;49.874;9.154;2023-07-13T04:58:15;100334.13;;;16.53;94.96
71465;BME280;59274;49.874;9.154;2023-07-13T05:00:41;100340.75;;;16.55;93.72
71465;BME280;59274;49.874;9.154;2023-07-13T05:03:06;100334.00;;;16.63;92.15
71465;BME280;59274;49.874;9.154;2023-07-13T05:05:32;100326.53;;;16.67;90.50
71465;BME280;59274;49.874;9.154;2023-07-13T05:07:57;100332.00;;;16.67;87.98
71465;BME280;59274;49.874;9.154;2023-07-13T05:10:23;100332.72;;;16.71;88.00
71465;BME280;59274;49.874;9.154;2023-07-13T05:12:49;100332.72;;;16.71;88.55
71465;BME280;59274;49.874;9.154;2023-07-13T05:15:15;100336.72;;;16.67;91.26
71465;BME280;59274;49.874;9.154;2023-07-13T05:17:41;100337.50;;;16.67;91.70
71465;BME280;59274;49.874;9.154;2023-07-13T05:20:08;100336.72;;;16.67;92.57
71465;BME280;59274;49.874;9.154;2023-07-13T05:22:33;100333.13;;;16.70;92.69
71465;BME280;59274;49.874;9.154;2023-07-13T05:25:01;100339.31;;;16.77;92.53
71465;BME280;59274;49.874;9.154;2023-07-13T05:27:27;100341.63;;;16.82;93.77
71465;BME280;59274;49.874;9.154;2023-07-13T05:29:52;100339.56;;;16.90;91.35
71465;BME280;59274;49.874;9.154;2023-07-13T05:32:18;100337.06;;;16.99;87.64
71465;BME280;59274;49.874;9.154;2023-07-13T05:34:43;100345.53;;;17.12;87.50
71465;BME280;59274;49.874;9.154;2023-07-13T05:37:09;100340.38;;;17.14;88.34
71465;BME280;59274;49.874;9.154;2023-07-13T05:39:34;100344.19;;;17.23;89.92
71465;BME280;59274;49.874;9.154;2023-07-13T05:42:00;100339.75;;;17.30;91.06
71465;BME280;59274;49.874;9.154;2023-07-13T05:44:25;100343.47;;;17.43;90.86
71465;BME280;59274;49.874;9.154;2023-07-13T05:46:51;100354.00;;;17.48;89.66
71465;BME280;59274;49.874;9.154;2023-07-13T05:49:16;100349.81;;;17.67;87.76
71465;BME280;59274;49.874;9.154;2023-07-13T05:51:42;100355.13;;;17.77;88.48
71465;BME280;59274;49.874;9.154;2023-07-13T05:54:07;100347.25;;;18.03;91.52
71465;BME280;59274;49.874;9.154;2023-07-13T05:56:32;100349.91;;;18.06;87.93
71465;BME280;59274;49.874;9.154;2023-07-13T05:59:01;100356.28;;;18.23;87.59
71465;BME280;59274;49.874;9.154;2023-07-13T06:01:26;100354.06;;;18.37;86.84
71465;BME280;59274;49.874;9.154;2023-07-13T06:03:52;100360.00;;;18.56;84.05
71465;BME280;59274;49.874;9.154;2023-07-13T06:06:17;100363.91;;;18.55;83.64
71465;BME280;59274;49.874;9.154;2023-07-13T06:08:43;100367.28;;;18.66;83.98
71465;BME280;59274;49.874;9.154;2023-07-13T06:11:15;100365.44;;;18.59;82.74
71465;BME280;59274;49.874;9.154;2023-07-13T06:13:41;100366.56;;;18.62;78.27
71465;BME280;59274;49.874;9.154;2023-07-13T06:16:07;100365.66;;;18.68;72.72
71465;BME280;59274;49.874;9.154;2023-07-13T06:18:34;100359.88;;;18.83;66.75
71465;BME280;59274;49.874;9.154;2023-07-13T06:21:11;100360.13;;;18.88;65.84
71465;BME280;59274;49.874;9.154;2023-07-13T06:23:37;100364.63;;;18.98;63.64
71465;BME280;59274;49.874;9.154;2023-07-13T06:26:03;100365.41;;;18.99;63.90
71465;BME280;59274;49.874;9.154;2023-07-13T06:28:29;100358.97;;;19.05;61.81
71465;BME280;59274;49.874;9.154;2023-07-13T06:30:56;100374.22;;;19.10;60.68
71465;BME280;59274;49.874;9.154;2023-07-13T06:33:22;100370.44;;;19.20;59.66
71465;BME280;59274;49.874;9.154;2023-07-13T06:35:47;100370.22;;;19.31;59.66
71465;BME280;59274;49.874;9.154;2023-07-13T06:38:13;100383.81;;;19.38;59.04
71465;BME280;59274;49.874;9.154;2023-07-13T06:40:38;100385.63;;;19.44;58.85
71465;BME280;59274;49.874;9.154;2023-07-13T06:43:04;100382.81;;;19.48;58.75
71465;BME280;59274;49.874;9.154;2023-07-13T06:45:29;100381.09;;;19.54;59.87
71465;BME280;59274;49.874;9.154;2023-07-13T06:47:55;100386.44;;;19.61;59.09
71465;BME280;59274;49.874;9.154;2023-07-13T06:50:20;100390.50;;;19.73;59.91
71465;BME280;59274;49.874;9.154;2023-07-13T06:52:46;100389.97;;;19.78;57.35
71465;BME280;59274;49.874;9.154;2023-07-13T06:55:11;100388.19;;;19.87;56.86
71465;BME280;59274;49.874;9.154;2023-07-13T06:57:36;100383.22;;;20.11;56.31
71465;BME280;59274;49.874;9.154;2023-07-13T07:00:02;100391.78;;;20.17;55.00
71465;BME280;59274;49.874;9.154;2023-07-13T07:02:27;100396.41;;;20.04;54.06
71465;BME280;59274;49.874;9.154;2023-07-13T07:04:53;100394.53;;;20.01;53.52
71465;BME280;59274;49.874;9.154;2023-07-13T07:07:19;100398.69;;;20.09;53.84
71465;BME280;59274;49.874;9.154;2023-07-13T07:09:45;100396.22;;;20.11;52.68
71465;BME280;59274;49.874;9.154;2023-07-13T07:12:10;100403.28;;;20.28;51.94
71465;BME280;59274;49.874;9.154;2023-07-13T07:14:35;100403.28;;;20.28;52.26
71465;BME280;59274;49.874;9.154;2023-07-13T07:17:01;100402.09;;;20.29;52.66
71465;BME280;59274;49.874;9.154;2023-07-13T07:19:30;100406.56;;;20.39;52.14
71465;BME280;59274;49.874;9.154;2023-07-13T07:21:55;100407.06;;;20.50;52.53
71465;BME280;59274;49.874;9.154;2023-07-13T07:24:21;100408.69;;;20.48;51.89
71465;BME280;59274;49.874;9.154;2023-07-13T07:26:46;100407.41;;;20.52;52.49
71465;BME280;59274;49.874;9.154;2023-07-13T07:29:12;100404.69;;;20.65;51.99
71465;BME280;59274;49.874;9.154;2023-07-13T07:31:37;100399.78;;;20.56;51.39
71465;BME280;59274;49.874;9.154;2023-07-13T07:34:02;100410.22;;;20.65;52.75
71465;BME280;59274;49.874;9.154;2023-07-13T07:36:28;100410.66;;;20.76;51.54
71465;BME280;59274;49.874;9.154;2023-07-13T07:38:53;100420.63;;;20.74;50.81
71465;BME280;59274;49.874;9.154;2023-07-13T07:41:19;100403.56;;;20.62;51.51
71465;BME280;59274;49.874;9.154;2023-07-13T07:43:44;100419.09;;;20.85;50.79
71465;BME280;59274;49.874;9.154;2023-07-13T07:46:13;100417.13;;;20.86;51.16
71465;BME280;59274;49.874;9.154;2023-07-13T07:48:38;100415.91;;;20.87;51.79
71465;BME280;59274;49.874;9.154;2023-07-13T07:51:04;100424.00;;;20.94;49.96
71465;BME280;59274;49.874;9.154;2023-07-13T07:53:30;100417.19;;;20.82;49.96
71465;BME280;59274;49.874;9.154;2023-07-13T07:55:55;100419.97;;;20.82;50.12
71465;BME280;59274;49.874;9.154;2023-07-13T07:58:21;100425.63;;;20.91;50.14
71465;BME280;59274;49.874;9.154;2023-07-13T08:00:46;100427.84;;;20.96;50.35
71465;BME280;59274;49.874;9.154;2023-07-13T08:03:12;100428.75;;;21.06;49.95
71465;BME280;59274;49.874;9.154;2023-07-13T08:05:37;100426.28;;;21.24;49.88
71465;BME280;59274;49.874;9.154;2023-07-13T08:08:03;100428.13;;;21.15;50.05
71465;BME280;59274;49.874;9.154;2023-07-13T08:10:29;100425.44;;;21.11;49.97
71465;BME280;59274;49.874;9.154;2023-07-13T08:12:57;100426.53;;;21.01;50.51
71465;BME280;59274;49.874;9.154;2023-07-13T08:15:23;100426.13;;;21.02;50.47
71465;BME280;59274;49.874;9.154;2023-07-13T08:17:49;100425.59;;;21.20;50.62
71465;BME280;59274;49.874;9.154;2023-07-13T08:20:16;100425.50;;;21.24;49.83
71465;BME280;59274;49.874;9.154;2023-07-13T08:22:41;100432.47;;;21.28;50.52
71465;BME280;59274;49.874;9.154;2023-07-13T08:25:07;100423.63;;;21.33;48.98
71465;BME280;59274;49.874;9.154;2023-07-13T08:27:33;100434.59;;;21.49;49.08
71465;BME280;59274;49.874;9.154;2023-07-13T08:29:59;100429.72;;;21.41;47.66
71465;BME280;59274;49.874;9.154;2023-07-13T08:32:24;100426.31;;;21.37;48.73
71465;BME280;59274;49.874;9.154;2023-07-13T08:34:50;100412.91;;;21.48;48.89
71465;BME280;59274;49.874;9.154;2023-07-13T08:37:16;100416.91;;;21.72;48.83
71465;BME280;59274;49.874;9.154;2023-07-13T08:39:42;100419.28;;;21.96;48.47
71465;BME280;59274;49.874;9.154;2023-07-13T08:47:23;100416.63;;;21.92;48.88
71465;BME280;59274;49.874;9.154;2023-07-13T08:49:50;100418.19;;;21.93;49.00
71465;BME280;59274;49.874;9.154;2023-07-13T08:52:29;100406.69;;;22.07;48.25
71465;BME280;59274;49.874;9.154;2023-07-13T08:55:08;100408.00;;;22.03;48.61
71465;BME280;59274;49.874;9.154;2023-07-13T08:57:37;100415.38;;;22.18;48.09
71465;BME280;59274;49.874;9.154;2023-07-13T09:00:08;100410.09;;;22.11;48.31
71465;BME280;59274;49.874;9.154;2023-07-13T09:02:42;100412.31;;;22.04;48.13
71465;BME280;59274;49.874;9.154;2023-07-13T09:05:25;100419.59;;;22.10;47.90
71465;BME280;59274;49.874;9.154;2023-07-13T09:08:12;100414.41;;;22.12;48.45
71465;BME280;59274;49.874;9.154;2023-07-13T09:10:52;100409.66;;;22.13;46.87
71465;BME280;59274;49.874;9.154;2023-07-13T09:13:57;100408.31;;;22.52;46.58
71465;BME280;59274;49.874;9.154;2023-07-13T09:16:28;100415.19;;;22.69;46.28
71465;BME280;59274;49.874;9.154;2023-07-13T09:19:03;100413.34;;;22.66;46.00
71465;BME280;59274;49.874;9.154;2023-07-13T09:21:37;100410.31;;;22.95;45.99
71465;BME280;59274;49.874;9.154;2023-07-13T09:26:58;100403.22;;;23.16;46.04
71465;BME280;59274;49.874;9.154;2023-07-13T09:29:30;100404.06;;;23.34;44.22
71465;BME280;59274;49.874;9.154;2023-07-13T09:32:03;100409.88;;;23.58;45.67
71465;BME280;59274;49.874;9.154;2023-07-13T09:34:32;100403.41;;;23.61;44.83
71465;BME280;59274;49.874;9.154;2023-07-13T09:36:58;100406.97;;;23.62;42.21
71465;BME280;59274;49.874;9.154;2023-07-13T09:39:33;100407.16;;;23.46;42.40
71465;BME280;59274;49.874;9.154;2023-07-13T09:44:49;100408.09;;;23.42;43.43
71465;BME280;59274;49.874;9.154;2023-07-13T09:49:59;100404.03;;;23.56;43.17
71465;BME280;59274;49.874;9.154;2023-07-13T09:52:40;100403.44;;;23.70;43.41
71465;BME280;59274;49.874;9.154;2023-07-13T09:57:47;100408.53;;;23.72;43.28
71465;BME280;59274;49.874;9.154;2023-07-13T10:00:21;100409.63;;;23.74;43.82
71465;BME280;59274;49.874;9.154;2023-07-13T10:03:02;100412.38;;;23.65;42.42
71465;BME280;59274;49.874;9.154;2023-07-13T10:05:37;100413.28;;;23.62;42.96
71465;BME280;59274;49.874;9.154;2023-07-13T10:08:03;100413.00;;;23.69;44.12
71465;BME280;59274;49.874;9.154;2023-07-13T10:10:33;100413.97;;;23.85;42.63
71465;BME280;59274;49.874;9.154;2023-07-13T10:12:58;100412.44;;;24.02;42.08
71465;BME280;59274;49.874;9.154;2023-07-13T10:15:25;100416.28;;;23.86;42.15
71465;BME280;59274;49.874;9.154;2023-07-13T10:17:53;100405.47;;;23.88;42.10
71465;BME280;59274;49.874;9.154;2023-07-13T10:20:21;100414.28;;;23.96;41.70
71465;BME280;59274;49.874;9.154;2023-07-13T10:23:02;100419.56;;;24.12;40.19
71465;BME280;59274;49.874;9.154;2023-07-13T10:25:34;100407.97;;;23.86;40.48
71465;BME280;59274;49.874;9.154;2023-07-13T10:28:25;100407.81;;;23.90;41.96
71465;BME280;59274;49.874;9.154;2023-07-13T10:30:52;100408.19;;;23.52;40.40
71465;BME280;59274;49.874;9.154;2023-07-13T10:33:22;100421.03;;;23.76;41.22
71465;BME280;59274;49.874;9.154;2023-07-13T10:35:50;100412.75;;;23.95;40.95
71465;BME280;59274;49.874;9.154;2023-07-13T10:38:22;100401.34;;;23.93;40.72
71465;BME280;59274;49.874;9.154;2023-07-13T10:40:58;100414.63;;;24.07;38.21
71465;BME280;59274;49.874;9.154;2023-07-13T10:46:03;100407.69;;;24.11;37.41
71465;BME280;59274;49.874;9.154;2023-07-13T10:48:31;100408.81;;;24.50;37.53
71465;BME280;59274;49.874;9.154;2023-07-13T10:51:00;100403.25;;;24.69;37.48
71465;BME280;59274;49.874;9.154;2023-07-13T10:53:32;100412.03;;;24.67;37.18
71465;BME280;59274;49.874;9.154;2023-07-13T10:58:36;100436.81;;;24.16;38.19
71465;BME280;59274;49.874;9.154;2023-07-13T11:01:10;100409.91;;;24.35;38.27
71465;BME280;59274;49.874;9.154;2023-07-13T11:03:55;100407.09;;;24.71;38.75
71465;BME280;59274;49.874;9.154;2023-07-13T11:08:55;100400.34;;;25.23;38.06
71465;BME280;59274;49.874;9.154;2023-07-13T11:11:36;100397.75;;;25.20;37.68
71465;BME280;59274;49.874;9.154;2023-07-13T11:16:52;100405.69;;;24.12;38.08
71465;BME280;59274;49.874;9.154;2023-07-13T11:24:57;100397.34;;;23.94;38.59
71465;BME280;59274;49.874;9.154;2023-07-13T11:32:33;100403.56;;;24.34;39.37
71465;BME280;59274;49.874;9.154;2023-07-13T11:34:58;100401.97;;;24.97;36.81
71465;BME280;59274;49.874;9.154;2023-07-13T11:37:26;100388.56;;;24.86;36.84
71465;BME280;59274;49.874;9.154;2023-07-13T11:39:53;100402.75;;;24.98;38.01
71465;BME280;59274;49.874;9.154;2023-07-13T11:42:20;100409.72;;;24.75;37.11
71465;BME280;59274;49.874;9.154;2023-07-13T11:44:50;100396.34;;;24.37;37.87
71465;BME280;59274;49.874;9.154;2023-07-13T11:47:21;100397.69;;;24.14;38.48
71465;BME280;59274;49.874;9.154;2023-07-13T11:49:55;100396.78;;;24.44;38.42
71465;BME280;59274;49.874;9.154;2023-07-13T11:52:36;100393.34;;;24.95;36.94
71465;BME280;59274;49.874;9.154;2023-07-13T11:55:08;100386.78;;;25.16;37.70
71465;BME280;59274;49.874;9.154;2023-07-13T12:00:25;100380.66;;;25.78;37.17
71465;BME280;59274;49.874;9.154;2023-07-13T12:02:53;100383.25;;;25.49;37.21
71465;BME280;59274;49.874;9.154;2023-07-13T12:05:19;100392.09;;;25.05;37.25
71465;BME280;59274;49.874;9.154;2023-07-13T12:07:49;100398.34;;;24.36;38.67
71465;BME280;59274;49.874;9.154;2023-07-13T12:10:28;100389.53;;;24.38;37.97
71465;BME280;59274;49.874;9.154;2023-07-13T12:13:04;100392.78;;;24.27;38.63
71465;BME280;59274;49.874;9.154;2023-07-13T12:15:39;100395.53;;;24.54;38.87
71465;BME280;59274;49.874;9.154;2023-07-13T12:18:29;100390.59;;;24.58;38.54
71465;BME280;59274;49.874;9.154;2023-07-13T12:20:57;100396.00;;;24.62;38.61
71465;BME280;59274;49.874;9.154;2023-07-13T12:23:29;100393.03;;;24.66;37.14
71465;BME280;59274;49.874;9.154;2023-07-13T12:25:57;100400.91;;;24.85;37.30
71465;BME280;59274;49.874;9.154;2023-07-13T12:28:44;100402.00;;;24.79;37.67
71465;BME280;59274;49.874;9.154;2023-07-13T12:31:24;100398.31;;;24.54;38.34
71465;BME280;59274;49.874;9.154;2023-07-13T12:34:00;100394.44;;;24.52;38.88
71465;BME280;59274;49.874;9.154;2023-07-13T12:36:25;100395.81;;;24.75;37.64
71465;BME280;59274;49.874;9.154;2023-07-13T12:38:51;100402.44;;;24.95;38.08
71465;BME280;59274;49.874;9.154;2023-07-13T12:41:16;100405.31;;;25.19;37.64
71465;BME280;59274;49.874;9.154;2023-07-13T12:43:44;100404.34;;;25.97;35.33
71465;BME280;59274;49.874;9.154;2023-07-13T12:46:23;100406.88;;;26.10;35.39
71465;BME280;59274;49.874;9.154;2023-07-13T12:48:53;100398.19;;;26.41;35.60
71465;BME280;59274;49.874;9.154;2023-07-13T12:51:22;100402.94;;;26.26;35.25
71465;BME280;59274;49.874;9.154;2023-07-13T12:53:56;100408.69;;;25.98;34.95
71465;BME280;59274;49.874;9.154;2023-07-13T12:56:24;100402.19;;;26.40;35.60
71465;BME280;59274;49.874;9.154;2023-07-13T12:58:57;100407.50;;;25.90;34.61
71465;BME280;59274;49.874;9.154;2023-07-13T13:01:27;100403.28;;;25.95;35.24
71465;BME280;59274;49.874;9.154;2023-07-13T13:03:53;100407.13;;;25.97;36.23
71465;BME280;59274;49.874;9.154;2023-07-13T13:06:26;100397.38;;;26.26;37.11
71465;BME280;59274;49.874;9.154;2023-07-13T13:08:58;100408.31;;;26.29;37.06
71465;BME280;59274;49.874;9.154;2023-07-13T13:11:25;100399.53;;;26.60;37.94
71465;BME280;59274;49.874;9.154;2023-07-13T13:13:51;100398.47;;;26.43;34.82
71465;BME280;59274;49.874;9.154;2023-07-13T13:16:26;100388.28;;;26.16;36.31
71465;BME280;59274;49.874;9.154;2023-07-13T13:18:56;100388.13;;;25.96;37.77
71465;BME280;59274;49.874;9.154;2023-07-13T13:21:25;100392.53;;;25.46;35.58
71465;BME280;59274;49.874;9.154;2023-07-13T13:23:51;100398.00;;;25.31;36.97
71465;BME280;59274;49.874;9.154;2023-07-13T13:26:19;100408.88;;;25.20;36.50
71465;BME280;59274;49.874;9.154;2023-07-13T13:28:45;100407.44;;;25.33;37.01
71465;BME280;59274;49.874;9.154;2023-07-13T13:31:13;100406.91;;;25.02;36.59
71465;BME280;59274;49.874;9.154;2023-07-13T13:33:43;100406.66;;;25.33;35.92
71465;BME280;59274;49.874;9.154;2023-07-13T13:36:18;100398.00;;;25.31;35.96